CheckWX is a tool to help pilots better visualize weather data.  It is not intended as a substitute for an official pre-flight weather briefing.

21:27:38 UTC

PAKT METAR
Ketchikan International Airport
Ketchikan, Alaska, USA
Current

35 mins ago

PAKT 222053Z 16004KT 5SM -RA BR BKN012 OVC033 08/07 A3028 RMK RAB35 SLP255 HARBOR WIND 13008KT P0000 60000 T00830072 51026 VIA AUTODIAL
Observed
Oct-22 @ 20:53 UTC
Wind
  • 160° at 4 KTS
Visibility
5 SM
Flight Rules
MVFR
Conditions
Light Rain, Mist
Cloud Levels
  • Broken at 1,200' AGL
  • Overcast at 3,300' AGL
Temperature
C / 46°F
Dewpoint
C / 45°F
Humidity
93%
Altimeter
30.28" Hg
Pressure
1025.42 hPa
Current Rain
0.01"
Previous

2 hours ago

PAKT 221953Z 15005KT 10SM SCT007 BKN013 OVC050 08/07 A3026 RMK SLP248 HARBOR WIND 11007KT T00780072 VIA AUTODIAL
Observed
Oct-22 @ 19:53 UTC
Wind
  • 150° at 5 KTS
Visibility
10 SM
Flight Rules
MVFR
Cloud Levels
  • Scattered at 700' AGL
  • Broken at 1,300' AGL
  • Overcast at 5,000' AGL
Temperature
C / 46°F
Dewpoint
C / 45°F
Humidity
93%
Altimeter
30.26" Hg
Pressure
1024.72 hPa
Previous

3 hours ago

PAKT 221853Z 13007KT 10SM FEW010 OVC047 08/07 A3024 RMK SLP241 HARBOR WIND 14007KT T00780067 VIA AUTODIAL
Observed
Oct-22 @ 18:53 UTC
Wind
  • 130° at 7 KTS
Visibility
10 SM
Flight Rules
VFR
Cloud Levels
  • Few at 1,000' AGL
  • Overcast at 4,700' AGL
Temperature
C / 46°F
Dewpoint
C / 45°F
Humidity
93%
Altimeter
30.24" Hg
Pressure
1024.02 hPa